createdAt,value
2024-04-17T00:00:03.060Z,96.49
2024-04-17T00:01:03.097Z,97.11
2024-04-17T00:02:03.064Z,97.01
2024-04-17T00:03:03.031Z,97.01
2024-04-17T00:04:03.085Z,97.17
2024-04-17T00:05:03.035Z,97.27
2024-04-17T00:06:02.987Z,97.58
2024-04-17T00:07:02.975Z,97.48
2024-04-17T00:08:02.996Z,97.78
2024-04-17T00:09:02.956Z,97.78
2024-04-17T00:10:02.949Z,97.48
2024-04-17T00:11:03.000Z,97.38
2024-04-17T00:12:02.947Z,97.38
2024-04-17T00:13:02.920Z,97.27
2024-04-17T00:14:02.910Z,97.58
2024-04-17T00:15:02.893Z,97.38
2024-04-17T00:16:04.008Z,97.38
2024-04-17T00:17:03.008Z,97.48
2024-04-17T00:18:03.035Z,97.17
2024-04-17T00:19:02.849Z,96.34
2024-04-17T00:20:02.845Z,96.34
2024-04-17T00:21:02.827Z,96.96
2024-04-17T00:22:02.865Z,96.45
2024-04-17T00:23:02.802Z,96.24
2024-04-17T00:24:02.824Z,96.24
2024-04-17T00:25:02.799Z,96.55
2024-04-17T00:26:02.858Z,96.45
2024-04-17T00:27:02.800Z,96.75
2024-04-17T00:28:02.780Z,96.24
2024-04-17T00:29:02.826Z,96.80
2024-04-17T00:30:02.780Z,97.06
2024-04-17T00:31:02.765Z,97.27
2024-04-17T00:32:02.736Z,97.38
2024-04-17T00:33:02.754Z,96.96
2024-04-17T00:34:02.697Z,96.75
2024-04-17T00:35:02.731Z,96.75
2024-04-17T00:36:02.685Z,96.75
2024-04-17T00:37:02.671Z,96.55
2024-04-17T00:38:02.673Z,96.70
2024-04-17T00:39:02.642Z,96.24
2024-04-17T00:40:02.646Z,96.14
2024-04-17T00:41:02.690Z,96.18
2024-04-17T00:42:02.635Z,96.08
2024-04-17T00:43:02.596Z,96.18
2024-04-17T00:44:02.606Z,95.98
2024-04-17T00:45:02.875Z,96.02
2024-04-17T00:46:02.572Z,96.23
2024-04-17T00:47:02.658Z,96.23
2024-04-17T00:48:02.626Z,96.23
2024-04-17T00:49:02.533Z,96.48
2024-04-17T00:50:02.597Z,96.69
2024-04-17T00:51:02.515Z,96.79
2024-04-17T00:52:02.510Z,97.34
2024-04-17T00:53:02.491Z,97.55
2024-04-17T00:54:02.549Z,97.86
2024-04-17T00:55:02.493Z,98.07
2024-04-17T00:56:02.525Z,98.38
2024-04-17T00:57:02.459Z,98.58
2024-04-17T00:58:02.448Z,98.79
2024-04-17T00:59:02.715Z,99.15
2024-04-17T01:00:02.439Z,99.46
2024-04-17T01:01:02.424Z,99.41
2024-04-17T01:02:02.457Z,99.56
2024-04-17T01:03:02.432Z,99.62
2024-04-17T01:04:03.174Z,99.72
2024-04-17T01:05:02.397Z,99.72
2024-04-17T01:06:02.388Z,99.66
2024-04-17T01:07:02.336Z,99.72
2024-04-17T01:08:02.821Z,99.66
2024-04-17T01:09:02.355Z,99.56
2024-04-17T01:10:02.336Z,99.87
2024-04-17T01:11:02.662Z,99.87
2024-04-17T01:12:02.352Z,99.98
2024-04-17T01:13:02.289Z,99.99
2024-04-17T01:14:02.352Z,99.99
2024-04-17T01:15:02.318Z,99.99
2024-04-17T01:16:02.389Z,99.99
2024-04-17T01:17:02.322Z,99.99
2024-04-17T01:18:02.417Z,99.99
2024-04-17T01:19:02.219Z,99.99
2024-04-17T01:20:02.250Z,99.99
2024-04-17T01:21:02.236Z,99.99
2024-04-17T01:22:02.599Z,99.99
2024-04-17T01:23:02.217Z,99.99
2024-04-17T01:24:02.176Z,99.99
2024-04-17T01:25:02.161Z,99.99
2024-04-17T01:26:02.224Z,99.99
2024-04-17T01:27:02.153Z,99.99
2024-04-17T01:28:02.176Z,99.99
2024-04-17T01:29:02.153Z,99.99
2024-04-17T01:30:02.143Z,99.99
2024-04-17T01:31:02.105Z,99.99
2024-04-17T01:32:02.139Z,99.99
2024-04-17T01:33:02.125Z,99.99
2024-04-17T01:34:02.070Z,99.99
2024-04-17T01:35:02.082Z,99.99
2024-04-17T01:36:02.067Z,99.99
2024-04-17T01:37:02.048Z,99.99
2024-04-17T01:38:02.030Z,99.99
2024-04-17T01:39:02.010Z,99.99
2024-04-17T01:40:02.008Z,99.99
2024-04-17T01:41:02.031Z,99.99
2024-04-17T01:42:02.024Z,99.99
2024-04-17T01:43:01.977Z,99.99
2024-04-17T01:44:01.969Z,99.99
2024-04-17T01:45:01.959Z,99.99
2024-04-17T01:46:01.954Z,99.99
2024-04-17T01:47:01.993Z,99.99
2024-04-17T01:48:01.988Z,99.99
2024-04-17T01:49:01.907Z,99.99
2024-04-17T01:50:02.007Z,99.99
2024-04-17T01:51:01.900Z,99.99
2024-04-17T01:52:01.880Z,99.99
2024-04-17T01:53:01.904Z,99.99
2024-04-17T01:54:01.865Z,99.99
2024-04-17T01:55:01.864Z,99.99
2024-04-17T01:56:01.889Z,99.99
2024-04-17T01:57:01.837Z,99.99
2024-04-17T01:58:01.847Z,99.99
2024-04-17T01:59:01.813Z,99.99
2024-04-17T02:00:01.827Z,99.99
2024-04-17T02:01:01.804Z,99.99
2024-04-17T02:02:01.820Z,99.99
2024-04-17T02:03:01.784Z,99.99
2024-04-17T02:04:01.796Z,99.99
2024-04-17T02:05:01.787Z,99.99
2024-04-17T02:06:01.752Z,99.99
2024-04-17T02:07:01.732Z,99.99
2024-04-17T02:08:01.742Z,99.99
2024-04-17T02:09:01.714Z,99.99
2024-04-17T02:10:01.691Z,99.99
2024-04-17T02:11:01.778Z,99.90
2024-04-17T02:12:01.677Z,99.90
2024-04-17T02:13:01.674Z,99.79
2024-04-17T02:14:01.722Z,99.69
2024-04-17T02:15:01.669Z,99.58
2024-04-17T02:16:01.665Z,99.48
2024-04-17T02:17:01.688Z,99.38
2024-04-17T02:18:01.729Z,99.58
2024-04-17T02:19:01.619Z,99.58
2024-04-17T02:20:01.729Z,99.58
2024-04-17T02:21:01.575Z,98.76
2024-04-17T02:22:01.597Z,98.45
2024-04-17T02:23:01.613Z,98.55
2024-04-17T02:24:01.561Z,98.08
2024-04-17T02:25:01.531Z,98.19
2024-04-17T02:26:01.636Z,98.35
2024-04-17T02:27:01.515Z,98.35
2024-04-17T02:28:01.522Z,98.14
2024-04-17T02:29:01.486Z,98.14
2024-04-17T02:30:01.482Z,98.14
2024-04-17T02:31:01.467Z,98.24
2024-04-17T02:32:01.535Z,97.63
2024-04-17T02:33:01.531Z,97.01
2024-04-17T02:34:01.449Z,96.64
2024-04-17T02:35:01.512Z,96.95
2024-04-17T02:36:01.419Z,96.95
2024-04-17T02:37:01.419Z,97.26
2024-04-17T02:38:01.439Z,97.47
2024-04-17T02:39:01.421Z,97.26
2024-04-17T02:40:01.381Z,97.77
2024-04-17T02:41:01.404Z,98.19
2024-04-17T02:42:01.389Z,98.14
2024-04-17T02:43:01.350Z,98.14
2024-04-17T02:44:01.409Z,97.94
2024-04-17T02:45:01.339Z,98.14
2024-04-17T02:46:01.348Z,98.24
2024-04-17T02:47:01.458Z,97.42
2024-04-17T02:48:01.392Z,97.52
2024-04-17T02:49:01.280Z,97.83
2024-04-17T02:50:01.313Z,98.14
2024-04-17T02:51:01.281Z,97.94
2024-04-17T02:52:01.338Z,97.01
2024-04-17T02:53:01.283Z,97.42
2024-04-17T02:54:01.239Z,97.73
2024-04-17T02:55:01.227Z,97.73
2024-04-17T02:56:01.267Z,97.83
2024-04-17T02:57:01.203Z,97.31
2024-04-17T02:58:01.199Z,97.63
2024-04-17T02:59:01.230Z,97.63
2024-04-17T03:00:01.181Z,97.52
2024-04-17T03:01:01.172Z,97.83
2024-04-17T03:02:01.211Z,98.14
2024-04-17T03:03:01.244Z,98.14
2024-04-17T03:04:01.189Z,98.19
2024-04-17T03:05:01.245Z,98.08
2024-04-17T03:06:01.142Z,98.29
2024-04-17T03:07:01.109Z,97.47
2024-04-17T03:08:01.121Z,97.05
2024-04-17T03:09:01.077Z,96.95
2024-04-17T03:10:01.083Z,96.64
2024-04-17T03:11:01.201Z,96.84
2024-04-17T03:12:01.059Z,96.64
2024-04-17T03:13:01.030Z,96.33
2024-04-17T03:14:01.100Z,96.44
2024-04-17T03:15:01.028Z,96.74
2024-04-17T03:16:01.022Z,96.95
2024-04-17T03:17:01.251Z,97.05
2024-04-17T03:18:01.169Z,96.44
2024-04-17T03:19:01.026Z,96.44
2024-04-17T03:20:01.038Z,96.12
2024-04-17T03:21:00.963Z,96.37
2024-04-17T03:22:00.933Z,96.58
2024-04-17T03:23:00.968Z,96.37
2024-04-17T03:24:00.933Z,96.79
2024-04-17T03:25:00.920Z,96.99
2024-04-17T03:26:00.935Z,96.58
2024-04-17T03:27:00.914Z,96.58
2024-04-17T03:28:01.034Z,96.89
2024-04-17T03:29:00.942Z,96.79
2024-04-17T03:30:00.849Z,96.89
2024-04-17T03:31:01.024Z,96.58
2024-04-17T03:32:00.862Z,96.37
2024-04-17T03:33:00.902Z,96.89
2024-04-17T03:34:00.825Z,96.89
2024-04-17T03:35:00.890Z,96.37
2024-04-17T03:36:00.809Z,96.58
2024-04-17T03:37:00.788Z,96.99
2024-04-17T03:38:00.850Z,97.20
2024-04-17T03:39:00.764Z,96.89
2024-04-17T03:40:00.743Z,96.69
2024-04-17T03:41:00.835Z,96.58
2024-04-17T03:42:00.727Z,96.84
2024-04-17T03:43:00.739Z,96.44
2024-04-17T03:44:00.772Z,96.23
2024-04-17T03:45:00.738Z,96.27
2024-04-17T03:46:00.682Z,96.37
2024-04-17T03:47:00.821Z,96.64
2024-04-17T03:48:00.734Z,96.12
2024-04-17T03:49:00.632Z,95.03
2024-04-17T03:50:00.647Z,95.45
2024-04-17T03:51:00.644Z,95.34
2024-04-17T03:52:00.642Z,95.34
2024-04-17T03:53:00.651Z,94.10
2024-04-17T03:54:00.561Z,94.52
2024-04-17T03:55:00.600Z,94.52
2024-04-17T03:56:00.712Z,94.62
2024-04-17T03:57:00.551Z,94.31
2024-04-17T03:58:00.502Z,94.04
2024-04-17T03:59:00.591Z,94.15
2024-04-17T04:00:00.522Z,94.46
2024-04-17T04:01:00.523Z,94.35
2024-04-17T04:02:00.666Z,94.87
2024-04-17T04:03:00.628Z,94.77
2024-04-17T04:04:00.498Z,94.46
2024-04-17T04:05:00.533Z,94.15
2024-04-17T04:06:00.449Z,93.73
2024-04-17T04:07:00.450Z,94.87
2024-04-17T04:08:00.497Z,95.49
2024-04-17T04:09:00.405Z,94.56
2024-04-17T04:10:00.469Z,93.84
2024-04-17T04:11:00.820Z,94.25
2024-04-17T04:12:00.414Z,94.35
2024-04-17T04:13:00.376Z,94.31
2024-04-17T04:14:00.426Z,94.82
2024-04-17T04:15:00.487Z,94.31
2024-04-17T04:16:00.787Z,92.76
2024-04-17T04:17:00.393Z,93.18
2024-04-17T04:18:00.360Z,93.49
2024-04-17T04:19:00.290Z,92.66
2024-04-17T04:20:00.483Z,92.76
2024-04-17T04:21:00.326Z,93.28
2024-04-17T04:22:00.251Z,93.69
2024-04-17T04:23:00.320Z,93.28
2024-04-17T04:24:00.286Z,94.21
2024-04-17T04:25:00.783Z,94.42
2024-04-17T04:26:00.247Z,94.52
2024-04-17T04:27:00.235Z,93.59
2024-04-17T04:28:00.198Z,91.94
2024-04-17T04:29:00.254Z,92.86
2024-04-17T04:30:00.203Z,93.90
2024-04-17T04:31:00.214Z,93.79
2024-04-17T04:32:00.222Z,93.07
2024-04-17T04:33:00.324Z,93.59
2024-04-17T04:34:00.186Z,93.65
2024-04-17T04:35:00.216Z,93.69
2024-04-17T04:36:00.116Z,92.76
2024-04-17T04:37:00.114Z,92.97
2024-04-17T04:38:00.189Z,93.07
2024-04-17T04:39:00.147Z,92.86
2024-04-17T04:40:00.081Z,93.49
2024-04-17T04:41:00.273Z,93.28
2024-04-17T04:42:00.065Z,92.35
2024-04-17T04:43:00.067Z,93.28
2024-04-17T04:44:00.078Z,92.86
2024-04-17T04:45:00.042Z,93.49
2024-04-17T04:46:00.026Z,93.28
2024-04-17T04:47:00.018Z,93.07
2024-04-17T04:48:00.061Z,93.54
2024-04-17T04:48:59.978Z,92.61
2024-04-17T04:50:00.013Z,93.03
2024-04-17T04:50:59.974Z,93.75
2024-04-17T04:51:59.958Z,94.06
2024-04-17T04:52:59.978Z,93.54
2024-04-17T04:53:59.925Z,93.54
2024-04-17T04:54:59.953Z,92.93
2024-04-17T04:55:59.965Z,90.86
2024-04-17T04:56:59.920Z,91.07
2024-04-17T04:57:59.882Z,91.52
2024-04-17T04:58:59.913Z,91.79
2024-04-17T04:59:59.859Z,92.35
2024-04-17T05:00:59.866Z,91.11
2024-04-17T05:01:59.889Z,91.01
2024-04-17T05:02:59.839Z,90.70
2024-04-17T05:03:59.856Z,91.22
2024-04-17T05:04:59.894Z,92.04
2024-04-17T05:05:59.819Z,91.52
2024-04-17T05:06:59.805Z,91.22
2024-04-17T05:07:59.815Z,89.71
2024-04-17T05:08:59.771Z,90.02
2024-04-17T05:09:59.796Z,90.74
2024-04-17T05:10:59.810Z,90.43
2024-04-17T05:11:59.751Z,91.56
2024-04-17T05:12:59.738Z,91.88
2024-04-17T05:13:59.800Z,91.88
2024-04-17T05:14:59.706Z,91.67
2024-04-17T05:15:59.705Z,91.46
2024-04-17T05:16:59.740Z,92.19
2024-04-17T05:17:59.768Z,91.67
2024-04-17T05:18:59.664Z,90.95
2024-04-17T05:19:59.684Z,91.36
2024-04-17T05:20:59.661Z,91.77
2024-04-17T05:21:59.624Z,91.88
2024-04-17T05:22:59.761Z,91.16
2024-04-17T05:23:59.608Z,91.56
2024-04-17T05:24:59.616Z,91.16
2024-04-17T05:25:59.695Z,90.33
2024-04-17T05:26:59.583Z,91.09
2024-04-17T05:27:59.583Z,92.50
2024-04-17T05:28:59.613Z,92.60
2024-04-17T05:29:59.556Z,91.77
2024-04-17T05:30:59.558Z,91.16
2024-04-17T05:31:59.565Z,91.22
2024-04-17T05:32:59.552Z,90.70
2024-04-17T05:33:59.514Z,89.81
2024-04-17T05:34:59.518Z,90.33
2024-04-17T05:35:59.481Z,89.61
2024-04-17T05:36:59.481Z,89.50
2024-04-17T05:37:59.512Z,89.71
2024-04-17T05:38:59.489Z,90.12
2024-04-17T05:39:59.458Z,90.02
2024-04-17T05:40:59.497Z,90.43
2024-04-17T05:41:59.421Z,90.64
2024-04-17T05:42:59.412Z,91.05
2024-04-17T05:43:59.447Z,89.75
2024-04-17T05:44:59.392Z,90.78
2024-04-17T05:45:59.379Z,90.26
2024-04-17T05:46:59.392Z,90.68
2024-04-17T05:47:59.447Z,91.61
2024-04-17T05:48:59.375Z,91.40
2024-04-17T05:50:03.347Z,91.92
2024-04-17T05:50:59.333Z,91.71
2024-04-17T05:51:59.321Z,90.43
2024-04-17T05:52:59.342Z,90.16
2024-04-17T05:53:59.331Z,90.26
2024-04-17T05:54:59.291Z,90.37
2024-04-17T05:55:59.545Z,89.86
2024-04-17T05:56:59.282Z,90.47
2024-04-17T05:57:59.264Z,90.58
2024-04-17T05:58:59.294Z,90.33
2024-04-17T05:59:59.225Z,90.95
2024-04-17T06:00:59.253Z,91.05
2024-04-17T06:01:59.296Z,90.43
2024-04-17T06:03:01.981Z,89.81
2024-04-17T06:03:59.212Z,89.23
2024-04-17T06:04:59.257Z,89.92
2024-04-17T06:05:59.166Z,89.71
2024-04-17T06:06:59.207Z,90.22
2024-04-17T06:07:59.321Z,90.12
2024-04-17T06:08:59.139Z,89.71
2024-04-17T06:09:59.140Z,89.98
2024-04-17T06:10:59.275Z,89.56
2024-04-17T06:11:59.128Z,89.98
2024-04-17T06:12:59.121Z,89.77
2024-04-17T06:13:59.222Z,89.77
2024-04-17T06:14:59.081Z,89.73
2024-04-17T06:15:59.066Z,90.14
2024-04-17T06:16:59.164Z,89.01
2024-04-17T06:17:59.092Z,88.59
2024-04-17T06:18:59.104Z,88.86
2024-04-17T06:19:59.052Z,89.17
2024-04-17T06:20:59.011Z,89.07
2024-04-17T06:21:59.014Z,87.27
2024-04-17T06:22:59.046Z,87.48
2024-04-17T06:23:58.983Z,88.06
2024-04-17T06:24:58.974Z,87.19
2024-04-17T06:25:59.037Z,86.68
2024-04-17T06:26:59.110Z,86.16
2024-04-17T06:27:58.935Z,86.58
2024-04-17T06:28:59.003Z,86.06
2024-04-17T06:29:58.920Z,85.86
2024-04-17T06:30:58.954Z,85.86
2024-04-17T06:31:58.950Z,86.95
2024-04-17T06:32:59.025Z,86.13
2024-04-17T06:33:58.874Z,85.61
2024-04-17T06:34:58.981Z,84.21
2024-04-17T06:35:58.877Z,85.24
2024-04-17T06:36:58.851Z,84.99
2024-04-17T06:37:58.967Z,84.99
2024-04-17T06:38:58.838Z,85.14
2024-04-17T06:39:58.822Z,84.83
2024-04-17T06:40:58.911Z,84.95
2024-04-17T06:42:02.756Z,84.17
2024-04-17T06:42:58.795Z,84.58
2024-04-17T06:43:58.786Z,83.41
2024-04-17T06:44:58.779Z,83.31
2024-04-17T06:45:58.750Z,84.64
2024-04-17T06:46:58.868Z,85.47
2024-04-17T06:47:58.795Z,83.76
2024-04-17T06:48:58.758Z,84.69
2024-04-17T06:49:58.787Z,85.10
2024-04-17T06:50:58.709Z,85.92
2024-04-17T06:51:58.685Z,84.21
2024-04-17T06:52:58.743Z,85.14
2024-04-17T06:53:58.685Z,86.58
2024-04-17T06:54:58.657Z,85.03
2024-04-17T06:55:58.772Z,85.55
2024-04-17T06:56:58.642Z,85.59
2024-04-17T06:57:58.624Z,86.52
2024-04-17T06:58:58.676Z,85.38
2024-04-17T06:59:58.606Z,86.47
2024-04-17T07:00:58.675Z,85.65
2024-04-17T07:01:58.687Z,86.37
2024-04-17T07:03:04.381Z,86.16
2024-04-17T07:03:58.697Z,85.65
2024-04-17T07:04:58.652Z,84.52
2024-04-17T07:05:58.543Z,85.03
2024-04-17T07:06:58.543Z,85.75
2024-04-17T07:07:58.614Z,84.14
2024-04-17T07:08:58.519Z,86.31
2024-04-17T07:09:58.504Z,85.17
2024-04-17T07:10:58.569Z,84.70
2024-04-17T07:11:58.535Z,85.73
2024-04-17T07:12:58.497Z,86.04
2024-04-17T07:13:58.510Z,86.35
2024-04-17T07:14:58.458Z,86.24
2024-04-17T07:15:58.437Z,86.15
2024-04-17T07:16:58.536Z,85.31
2024-04-17T07:17:58.459Z,85.67
2024-04-17T07:18:58.476Z,85.67
2024-04-17T07:19:58.426Z,86.08
2024-04-17T07:20:58.394Z,86.70
2024-04-17T07:21:58.409Z,86.49
2024-04-17T07:22:58.388Z,86.90
2024-04-17T07:23:58.370Z,86.76
2024-04-17T07:24:58.339Z,86.66
2024-04-17T07:25:58.418Z,85.63
2024-04-17T07:26:58.344Z,85.34
2024-04-17T07:27:58.322Z,85.03
2024-04-17T07:28:58.323Z,84.38
2024-04-17T07:29:58.299Z,83.45
2024-04-17T07:30:58.294Z,83.55
2024-04-17T07:31:58.384Z,83.14
2024-04-17T07:32:58.366Z,82.93
2024-04-17T07:33:58.252Z,82.48
2024-04-17T07:34:59.736Z,81.39
2024-04-17T07:35:58.262Z,81.70
2024-04-17T07:36:58.219Z,81.91
2024-04-17T07:37:58.290Z,81.70
2024-04-17T07:38:58.205Z,81.63
2024-04-17T07:39:58.213Z,83.35
2024-04-17T07:40:58.237Z,83.97
2024-04-17T07:41:58.177Z,81.70
2024-04-17T07:42:58.166Z,80.88
2024-04-17T07:43:58.238Z,81.46
2024-04-17T07:44:58.173Z,80.60
2024-04-17T07:45:58.223Z,80.33
2024-04-17T07:46:58.161Z,81.62
2024-04-17T07:47:58.225Z,80.91
2024-04-17T07:48:58.099Z,82.10
2024-04-17T07:49:58.166Z,80.46
2024-04-17T07:50:58.076Z,81.79
2024-04-17T07:51:58.080Z,82.27
2024-04-17T07:52:58.195Z,81.20
2024-04-17T07:53:58.071Z,79.15
2024-04-17T07:54:58.044Z,78.27
2024-04-17T07:55:58.095Z,78.36
2024-04-17T07:56:58.015Z,78.71
2024-04-17T07:57:58.023Z,80.77
2024-04-17T07:58:58.104Z,79.77
2024-04-17T07:59:57.987Z,80.08
2024-04-17T08:00:58.020Z,79.98
2024-04-17T08:01:58.026Z,81.62
2024-04-17T08:02:57.994Z,81.07
2024-04-17T08:03:57.986Z,79.98
2024-04-17T08:04:58.008Z,80.25
2024-04-17T08:05:57.938Z,79.77
2024-04-17T08:06:57.912Z,80.66
2024-04-17T08:07:58.703Z,80.15
2024-04-17T08:08:57.907Z,78.67
2024-04-17T08:09:57.908Z,79.36
2024-04-17T08:10:57.906Z,76.58
2024-04-17T08:11:57.900Z,76.89
2024-04-17T08:12:57.863Z,77.10
2024-04-17T08:13:57.890Z,76.34
2024-04-17T08:14:57.843Z,75.04
2024-04-17T08:15:57.815Z,75.32
2024-04-17T08:16:57.869Z,73.40
2024-04-17T08:17:58.013Z,71.59
2024-04-17T08:18:57.782Z,73.10
2024-04-17T08:19:57.872Z,71.70
2024-04-17T08:20:57.937Z,70.67
2024-04-17T08:21:57.779Z,68.32
2024-04-17T08:22:57.903Z,68.05
2024-04-17T08:23:57.807Z,66.78
2024-04-17T08:24:57.719Z,68.15
2024-04-17T08:25:57.760Z,69.41
2024-04-17T08:26:57.714Z,71.49
2024-04-17T08:27:57.696Z,72.86
2024-04-17T08:28:57.745Z,72.44
2024-04-17T08:29:57.671Z,73.30
2024-04-17T08:30:57.651Z,70.39
2024-04-17T08:31:57.680Z,70.18
2024-04-17T08:32:57.917Z,71.04
2024-04-17T08:33:57.738Z,71.97
2024-04-17T08:34:57.649Z,71.01
2024-04-17T08:35:57.626Z,70.53
2024-04-17T08:36:57.602Z,66.41
2024-04-17T08:37:57.700Z,68.25
2024-04-17T08:38:57.638Z,69.68
2024-04-17T08:39:57.577Z,73.27
2024-04-17T08:40:57.710Z,66.01
2024-04-17T08:41:57.550Z,64.15
2024-04-17T08:42:57.528Z,60.86
2024-04-17T08:43:57.553Z,62.42
2024-04-17T08:44:57.517Z,64.76
2024-04-17T08:45:57.681Z,61.94
2024-04-17T08:46:57.522Z,59.57
2024-04-17T08:47:57.547Z,62.30
2024-04-17T08:48:57.462Z,59.05
2024-04-17T08:49:57.531Z,59.46
2024-04-17T08:50:57.481Z,55.63
2024-04-17T08:51:57.437Z,56.76
2024-04-17T08:52:57.544Z,56.52
2024-04-17T08:53:57.414Z,56.88
2024-04-17T08:54:57.418Z,54.41
2024-04-17T08:55:57.499Z,53.19
2024-04-17T08:56:57.371Z,52.96
2024-04-17T08:57:57.372Z,52.15
2024-04-17T08:58:57.358Z,51.16
2024-04-17T08:59:57.362Z,53.27
2024-04-17T09:00:57.397Z,50.32
2024-04-17T09:01:57.360Z,55.18
2024-04-17T09:02:57.326Z,52.63
2024-04-17T09:03:57.384Z,53.27
2024-04-17T09:04:57.368Z,52.73
2024-04-17T09:05:58.170Z,54.61
2024-04-17T09:06:57.277Z,54.00
2024-04-17T09:07:57.299Z,53.91
2024-04-17T09:08:57.264Z,49.44
2024-04-17T09:09:57.277Z,51.26
2024-04-17T09:10:57.522Z,51.79
2024-04-17T09:11:58.267Z,51.18
2024-04-17T09:12:57.208Z,54.08
2024-04-17T09:13:57.347Z,53.06
2024-04-17T09:14:57.466Z,54.74
2024-04-17T09:15:57.183Z,53.39
2024-04-17T09:16:57.255Z,58.73
2024-04-17T09:17:57.209Z,58.89
2024-04-17T09:18:57.152Z,53.57
2024-04-17T09:19:57.408Z,53.42
2024-04-17T09:20:57.137Z,51.63
2024-04-17T09:21:57.131Z,52.58
2024-04-17T09:22:57.198Z,51.68
2024-04-17T09:23:57.124Z,56.96
2024-04-17T09:24:57.083Z,56.30
2024-04-17T09:25:57.155Z,52.20
2024-04-17T09:26:57.072Z,52.93
2024-04-17T09:27:57.076Z,53.03
2024-04-17T09:28:57.235Z,54.87
2024-04-17T09:29:57.050Z,53.55
2024-04-17T09:30:57.028Z,49.26
2024-04-17T09:31:57.075Z,50.28
2024-04-17T09:32:57.338Z,51.89
2024-04-17T09:33:56.997Z,54.24
2024-04-17T09:34:57.080Z,49.44
2024-04-17T09:35:56.978Z,47.94
2024-04-17T09:36:56.972Z,48.36
2024-04-17T09:37:57.033Z,50.53
2024-04-17T09:38:56.942Z,51.35
2024-04-17T09:39:56.935Z,56.02
2024-04-17T09:40:56.938Z,54.69
2024-04-17T09:41:56.926Z,50.92
2024-04-17T09:42:57.189Z,49.57
2024-04-17T09:43:56.973Z,53.85
2024-04-17T09:44:56.877Z,50.41
2024-04-17T09:45:56.901Z,48.98
2024-04-17T09:46:59.299Z,49.79
2024-04-17T09:47:56.889Z,49.71
2024-04-17T09:48:56.839Z,53.39
2024-04-17T09:49:56.891Z,53.42
2024-04-17T09:50:57.214Z,53.31
2024-04-17T09:51:57.431Z,53.44
2024-04-17T09:52:56.863Z,55.15
2024-04-17T09:53:56.805Z,55.15
2024-04-17T09:54:56.787Z,53.83
2024-04-17T09:55:57.023Z,54.57
2024-04-17T09:56:56.801Z,54.13
2024-04-17T09:57:57.022Z,52.91
2024-04-17T09:59:04.089Z,52.60
2024-04-17T09:59:56.727Z,55.36
2024-04-17T10:00:56.775Z,50.89
2024-04-17T10:01:56.759Z,51.19
2024-04-17T10:02:56.750Z,49.05
2024-04-17T10:03:56.702Z,49.76
2024-04-17T10:04:56.720Z,47.72
2024-04-17T10:05:56.689Z,45.57
2024-04-17T10:06:56.644Z,50.48
2024-04-17T10:07:56.703Z,48.10
2024-04-17T10:08:56.634Z,49.10
2024-04-17T10:09:56.660Z,52.34
2024-04-17T10:10:56.768Z,51.30
2024-04-17T10:11:56.640Z,50.79
2024-04-17T10:12:56.589Z,49.77
2024-04-17T10:13:56.645Z,51.20
2024-04-17T10:14:56.584Z,49.54
2024-04-17T10:15:56.564Z,53.29
2024-04-17T10:16:56.597Z,50.54
2024-04-17T10:17:56.660Z,50.74
2024-04-17T10:18:56.587Z,48.52
2024-04-17T10:19:56.565Z,47.89
2024-04-17T10:20:56.504Z,50.84
2024-04-17T10:21:56.510Z,48.48
2024-04-17T10:22:56.501Z,50.80
2024-04-17T10:23:56.493Z,46.93
2024-04-17T10:24:56.456Z,46.85
2024-04-17T10:25:56.490Z,47.87
2024-04-17T10:26:56.440Z,49.90
2024-04-17T10:27:56.432Z,48.71
2024-04-17T10:28:56.492Z,47.56
2024-04-17T10:29:56.419Z,47.69
2024-04-17T10:30:56.396Z,48.81
2024-04-17T10:31:56.406Z,48.81
2024-04-17T10:32:56.466Z,47.38
2024-04-17T10:33:56.392Z,47.38
2024-04-17T10:34:56.395Z,48.60
2024-04-17T10:35:56.361Z,48.07
2024-04-17T10:36:56.366Z,47.24
2024-04-17T10:37:57.449Z,49.48
2024-04-17T10:38:56.380Z,51.18
2024-04-17T10:39:56.311Z,48.54
2024-04-17T10:40:56.398Z,46.70
2024-04-17T10:41:56.306Z,45.28
2024-04-17T10:42:56.297Z,44.77
2024-04-17T10:43:56.317Z,48.21
2024-04-17T10:44:56.273Z,45.28
2024-04-17T10:45:56.264Z,45.67
2024-04-17T10:46:56.342Z,45.36
2024-04-17T10:47:56.341Z,44.95
2024-04-17T10:48:56.282Z,42.74
2024-04-17T10:49:56.298Z,40.62
2024-04-17T10:50:56.232Z,41.96
2024-04-17T10:51:56.212Z,42.55
2024-04-17T10:52:56.214Z,38.78
2024-04-17T10:53:56.186Z,38.87
2024-04-17T10:54:56.171Z,41.00
2024-04-17T10:55:56.194Z,39.09
2024-04-17T10:56:56.168Z,39.21
2024-04-17T10:57:56.146Z,41.74
2024-04-17T10:58:56.149Z,41.23
2024-04-17T10:59:56.132Z,38.58
2024-04-17T11:00:56.151Z,44.57
2024-04-17T11:01:56.259Z,43.65
2024-04-17T11:02:56.128Z,44.34
2024-04-17T11:03:56.161Z,42.22
2024-04-17T11:04:56.087Z,44.45
2024-04-17T11:05:56.103Z,44.63
2024-04-17T11:06:56.077Z,45.54
2024-04-17T11:07:56.101Z,43.41
2024-04-17T11:09:01.038Z,44.91
2024-04-17T11:09:56.039Z,41.15
2024-04-17T11:10:56.078Z,43.90
2024-04-17T11:11:56.086Z,42.90
2024-04-17T11:12:56.024Z,42.74
2024-04-17T11:13:56.125Z,44.28
2024-04-17T11:14:56.004Z,43.30
2024-04-17T11:15:56.024Z,44.75
2024-04-17T11:16:56.052Z,44.57
2024-04-17T11:17:56.150Z,44.87
2024-04-17T11:18:55.954Z,46.20
2024-04-17T11:19:56.015Z,45.28
2024-04-17T11:20:56.021Z,43.85
2024-04-17T11:21:55.929Z,48.73
2024-04-17T11:22:55.982Z,44.67
2024-04-17T11:23:55.940Z,48.24
2024-04-17T11:24:55.917Z,52.62
2024-04-17T11:25:55.928Z,55.28
2024-04-17T11:26:55.875Z,56.91
2024-04-17T11:27:55.880Z,57.24
2024-04-17T11:28:55.966Z,57.96
2024-04-17T11:29:55.879Z,58.95
2024-04-17T11:30:55.857Z,58.62
2024-04-17T11:31:55.889Z,56.96
2024-04-17T11:32:55.907Z,57.24
2024-04-17T11:33:55.833Z,57.14
2024-04-17T11:34:55.856Z,56.83
2024-04-17T11:35:55.818Z,56.29
2024-04-17T11:36:55.784Z,55.99
2024-04-17T11:37:55.820Z,56.57
2024-04-17T11:38:55.877Z,55.66
2024-04-17T11:39:55.751Z,56.50
2024-04-17T11:40:55.761Z,56.70
2024-04-17T11:41:55.738Z,56.81
2024-04-17T11:42:55.744Z,54.54
2024-04-17T11:43:55.769Z,55.05
2024-04-17T11:44:57.375Z,56.57
2024-04-17T11:45:56.688Z,56.04
2024-04-17T11:46:55.726Z,55.12
2024-04-17T11:47:55.813Z,56.14
2024-04-17T11:48:55.701Z,54.49
2024-04-17T11:49:55.745Z,55.00
2024-04-17T11:50:55.655Z,55.88
2024-04-17T11:51:55.658Z,56.21
2024-04-17T11:52:55.786Z,55.07
2024-04-17T11:53:55.624Z,55.96
2024-04-17T11:54:55.622Z,54.33
2024-04-17T11:55:55.626Z,55.15
2024-04-17T11:56:55.614Z,55.15
2024-04-17T11:57:55.634Z,53.63
2024-04-17T11:58:55.630Z,53.98
2024-04-17T11:59:55.573Z,55.30
2024-04-17T12:00:55.637Z,55.22
2024-04-17T12:01:55.606Z,56.62
2024-04-17T12:02:55.585Z,55.48
2024-04-17T12:03:55.598Z,55.20
2024-04-17T12:04:55.666Z,57.77
2024-04-17T12:05:55.525Z,56.65
2024-04-17T12:06:55.513Z,56.60
2024-04-17T12:07:55.539Z,58.36
2024-04-17T12:08:55.484Z,59.25
2024-04-17T12:09:55.471Z,59.42
2024-04-17T12:10:55.512Z,57.06
2024-04-17T12:11:55.556Z,58.89
2024-04-17T12:12:55.457Z,59.93
2024-04-17T12:13:55.485Z,58.40
2024-04-17T12:14:55.432Z,58.36
2024-04-17T12:15:55.444Z,58.62
2024-04-17T12:16:55.430Z,58.64
2024-04-17T12:17:55.426Z,61.02
2024-04-17T12:18:55.418Z,61.53
2024-04-17T12:19:55.441Z,61.63
2024-04-17T12:20:55.396Z,61.19
2024-04-17T12:21:55.355Z,59.89
2024-04-17T12:22:55.401Z,60.85
2024-04-17T12:23:55.332Z,61.76
2024-04-17T12:24:55.331Z,61.58
2024-04-17T12:25:55.379Z,64.34
2024-04-17T12:26:55.324Z,62.07
2024-04-17T12:27:55.302Z,61.97
2024-04-17T12:28:55.340Z,59.92
2024-04-17T12:29:55.298Z,60.36
2024-04-17T12:30:55.290Z,60.67
2024-04-17T12:31:55.318Z,59.98
2024-04-17T12:32:55.402Z,61.54
2024-04-17T12:33:55.315Z,61.24
2024-04-17T12:34:55.290Z,63.18
2024-04-17T12:35:55.255Z,62.87
2024-04-17T12:36:55.223Z,62.43
2024-04-17T12:37:55.255Z,61.03
2024-04-17T12:38:55.210Z,61.03
2024-04-17T12:39:55.256Z,64.00
2024-04-17T12:40:55.291Z,64.17
2024-04-17T12:41:55.197Z,62.30
2024-04-17T12:42:55.169Z,63.73
2024-04-17T12:43:55.213Z,59.62
2024-04-17T12:44:55.175Z,59.08
2024-04-17T12:45:55.123Z,59.89
2024-04-17T12:46:55.183Z,60.58
2024-04-17T12:47:55.182Z,58.64
2024-04-17T12:48:55.120Z,57.70
2024-04-17T12:49:55.103Z,56.88
2024-04-17T12:50:55.102Z,58.44
2024-04-17T12:51:55.094Z,58.44